Chembulk Gibraltar — 9VFA5 — position and weather

sailwx.info

Track history (hours):
 
Tides and Currents Weather Stations Pressure Air Temp Water Temp Dewpoint Dewpoint Depression Visibility Wind Speed Wind Dir Waves Ship Positions

Chembulk Gibraltar

Last reported at 2015-Apr-21 05:34 UTC. Time now 2015-May-07 09:39 UTC.
Position S 24°20' W 045°43'.
Warning: this ship's position is 16 days out of date.

Length 143 m; draft 9.2 m.

Type: Ship (hazmat cat B). MMSI: 565722000.

Date/timePositionNaut miles runAvg speedWind from/ knotsBaromVisibWave heightAir tempDewpointWater temp
2015-Apr-21 05:34S 24°20' W 045°43'1313.2
2015-Apr-21 04:33S 24°22' W 045°57'1513.2
2015-Apr-21 03:25S 24°22' W 046°14'1112.6
2015-Apr-21 02:33S 24°13' W 046°20'1211.8
2015-Apr-21 01:33S 24°02' W 046°21'6 6.0
2015-Apr-21 00:34S 23°56' W 046°19'1 0.8
2015-Apr-20 23:32S 23°55' W 046°20'0 0.0
2015-Apr-20 22:20S 23°55' W 046°20'0 0.0
2015-Apr-20 21:29S 23°55' W 046°20'0 0.0
2015-Apr-20 20:32S 23°55' W 046°20'0 0.0
2015-Apr-20 19:26S 23°55' W 046°20'0 0.0
2015-Apr-20 18:26S 23°55' W 046°20'0 0.0
2015-Apr-20 17:32S 23°55' W 046°20'0 0.0
2015-Apr-20 16:32S 23°55' W 046°20'0 0.0
2015-Apr-20 15:32S 23°55' W 046°20'0 0.0
2015-Apr-20 14:32S 23°55' W 046°20'0 0.0
2015-Apr-20 13:29S 23°55' W 046°20'0 0.0
2015-Apr-20 12:26S 23°55' W 046°20'0 0.0
2015-Apr-20 11:29S 23°55' W 046°20'0 0.0
2015-Apr-20 10:29S 23°55' W 046°20'0 0.0
2015-Apr-20 09:31S 23°55' W 046°20'0 0.0
2015-Apr-20 08:31S 23°55' W 046°20'0 0.0
2015-Apr-20 07:22S 23°55' W 046°20'0 0.0
2015-Apr-20 06:28S 23°55' W 046°20'0 0.0
2015-Apr-20 05:31S 23°55' W 046°20'0 0.0
2015-Apr-20 04:28S 23°55' W 046°20'0 0.0
2015-Apr-20 03:31S 23°55' W 046°20'0 0.0
2015-Apr-20 02:31S 23°55' W 046°20'0 0.0
2015-Apr-20 01:31S 23°55' W 046°20'0 0.0
2015-Apr-20 00:33S 23°56' W 046°20'4 4.4
2015-Apr-19 23:33S 23°60' W 046°20'6 6.0
2015-Apr-19 22:30S 24°06' W 046°21'0 0.0
2015-Apr-19 21:33S 24°06' W 046°21'0 0.0
2015-Apr-19 20:33S 24°06' W 046°21'0 0.0
2015-Apr-19 19:18S 24°06' W 046°21'0 0.1
2015-Apr-19 18:33S 24°06' W 046°21'0 0.0
2015-Apr-19 17:33S 24°06' W 046°21'0 0.0
2015-Apr-19 16:30S 24°06' W 046°21'0 0.0
2015-Apr-19 15:30S 24°06' W 046°21'0 0.0
2015-Apr-19 14:30S 24°06' W 046°21'0 0.0
2015-Apr-19 13:30S 24°06' W 046°21'0 0.0
2015-Apr-19 12:30S 24°06' W 046°21'0 0.0
2015-Apr-19 11:33S 24°06' W 046°21'0 0.0
2015-Apr-19 10:33S 24°06' W 046°21'0 0.0
2015-Apr-19 09:33S 24°06' W 046°21'0 0.0
2015-Apr-19 08:30S 24°06' W 046°21'0 0.0
2015-Apr-19 07:29S 24°06' W 046°21'0 0.0
2015-Apr-19 06:26S 24°06' W 046°21'0 0.0
2015-Apr-19 05:29S 24°06' W 046°21'0 0.0
2015-Apr-19 04:29S 24°06' W 046°21'0 0.0
2015-Apr-19 03:29S 24°06' W 046°21'0 0.0
2015-Apr-19 02:29S 24°06' W 046°21'0 0.0
2015-Apr-19 01:29S 24°06' W 046°21'0 0.0
2015-Apr-19 00:20S 24°06' W 046°21'0 0.0
2015-Apr-18 23:26S 24°06' W 046°21'0 0.0
2015-Apr-18 22:20S 24°06' W 046°21'0 0.0
2015-Apr-18 21:23S 24°06' W 046°21'0 0.0
2015-Apr-18 20:32S 24°06' W 046°21'0 0.0
2015-Apr-18 19:29S 24°06' W 046°21'0 0.0
2015-Apr-18 18:32S 24°06' W 046°21'0 0.0
2015-Apr-18 17:29S 24°06' W 046°21'2 2.0
2015-Apr-18 16:33S 24°07' W 046°22'1211.5
2015-Apr-18 15:30S 24°19' W 046°27'  
Track history (hours):
 
Tides and Currents Weather Stations Pressure Air Temp Water Temp Dewpoint Dewpoint Depression Visibility Wind Speed Wind Dir Waves Ship Positions

Chembulk Gibraltar

Last reported at 2015-Apr-21 05:34 UTC. Time now 2015-May-07 09:39 UTC.
Position S 24°20' W 045°43'.
Warning: this ship's position is 16 days out of date.

Length 143 m; draft 9.2 m.

Type: Ship (hazmat cat B). MMSI: 565722000.

Date/timePositionNaut miles runAvg speedWind from/ knotsBaromVisibWave heightAir tempDewpointWater temp
2015-Apr-21 05:34S 24°20' W 045°43'1313.2
2015-Apr-21 04:33S 24°22' W 045°57'1513.2
2015-Apr-21 03:25S 24°22' W 046°14'1112.6
2015-Apr-21 02:33S 24°13' W 046°20'1211.8
2015-Apr-21 01:33S 24°02' W 046°21'6 6.0
2015-Apr-21 00:34S 23°56' W 046°19'1 0.8
2015-Apr-20 23:32S 23°55' W 046°20'0 0.0
2015-Apr-20 22:20S 23°55' W 046°20'0 0.0
2015-Apr-20 21:29S 23°55' W 046°20'0 0.0
2015-Apr-20 20:32S 23°55' W 046°20'0 0.0
2015-Apr-20 19:26S 23°55' W 046°20'0 0.0
2015-Apr-20 18:26S 23°55' W 046°20'0 0.0
2015-Apr-20 17:32S 23°55' W 046°20'0 0.0
2015-Apr-20 16:32S 23°55' W 046°20'0 0.0
2015-Apr-20 15:32S 23°55' W 046°20'0 0.0
2015-Apr-20 14:32S 23°55' W 046°20'0 0.0
2015-Apr-20 13:29S 23°55' W 046°20'0 0.0
2015-Apr-20 12:26S 23°55' W 046°20'0 0.0
2015-Apr-20 11:29S 23°55' W 046°20'0 0.0
2015-Apr-20 10:29S 23°55' W 046°20'0 0.0
2015-Apr-20 09:31S 23°55' W 046°20'0 0.0
2015-Apr-20 08:31S 23°55' W 046°20'0 0.0
2015-Apr-20 07:22S 23°55' W 046°20'0 0.0
2015-Apr-20 06:28S 23°55' W 046°20'0 0.0
2015-Apr-20 05:31S 23°55' W 046°20'0 0.0
2015-Apr-20 04:28S 23°55' W 046°20'0 0.0
2015-Apr-20 03:31S 23°55' W 046°20'0 0.0
2015-Apr-20 02:31S 23°55' W 046°20'0 0.0
2015-Apr-20 01:31S 23°55' W 046°20'0 0.0
2015-Apr-20 00:33S 23°56' W 046°20'4 4.4
2015-Apr-19 23:33S 23°60' W 046°20'6 6.0
2015-Apr-19 22:30S 24°06' W 046°21'0 0.0
2015-Apr-19 21:33S 24°06' W 046°21'0 0.0
2015-Apr-19 20:33S 24°06' W 046°21'0 0.0
2015-Apr-19 19:18S 24°06' W 046°21'0 0.1
2015-Apr-19 18:33S 24°06' W 046°21'0 0.0
2015-Apr-19 17:33S 24°06' W 046°21'0 0.0
2015-Apr-19 16:30S 24°06' W 046°21'0 0.0
2015-Apr-19 15:30S 24°06' W 046°21'0 0.0
2015-Apr-19 14:30S 24°06' W 046°21'0 0.0
2015-Apr-19 13:30S 24°06' W 046°21'0 0.0
2015-Apr-19 12:30S 24°06' W 046°21'0 0.0
2015-Apr-19 11:33S 24°06' W 046°21'0 0.0
2015-Apr-19 10:33S 24°06' W 046°21'0 0.0
2015-Apr-19 09:33S 24°06' W 046°21'0 0.0
2015-Apr-19 08:30S 24°06' W 046°21'0 0.0
2015-Apr-19 07:29S 24°06' W 046°21'0 0.0
2015-Apr-19 06:26S 24°06' W 046°21'0 0.0
2015-Apr-19 05:29S 24°06' W 046°21'0 0.0
2015-Apr-19 04:29S 24°06' W 046°21'0 0.0
2015-Apr-19 03:29S 24°06' W 046°21'0 0.0
2015-Apr-19 02:29S 24°06' W 046°21'0 0.0
2015-Apr-19 01:29S 24°06' W 046°21'0 0.0
2015-Apr-19 00:20S 24°06' W 046°21'0 0.0
2015-Apr-18 23:26S 24°06' W 046°21'0 0.0
2015-Apr-18 22:20S 24°06' W 046°21'0 0.0
2015-Apr-18 21:23S 24°06' W 046°21'0 0.0
2015-Apr-18 20:32S 24°06' W 046°21'0 0.0
2015-Apr-18 19:29S 24°06' W 046°21'0 0.0
2015-Apr-18 18:32S 24°06' W 046°21'0 0.0
2015-Apr-18 17:29S 24°06' W 046°21'2 2.0
2015-Apr-18 16:33S 24°07' W 046°22'1211.5
2015-Apr-18 15:30S 24°19' W 046°27'  

Dump ship's entire track history